createdAt,value
2023-05-01T04:32:41.449Z,76.18
2023-05-01T04:35:08.378Z,75.92
2023-05-01T04:37:34.888Z,75.87
2023-05-01T04:40:01.452Z,75.74
2023-05-01T04:42:31.960Z,75.48
2023-05-01T04:44:58.664Z,75.21
2023-05-01T04:47:25.253Z,74.82
2023-05-01T04:49:51.810Z,74.54
2023-05-01T04:52:18.321Z,74.31
2023-05-01T04:54:44.859Z,74.08
2023-05-01T04:57:11.405Z,74.20
2023-05-01T04:59:37.978Z,74.10
2023-05-01T05:02:04.526Z,74.10
2023-05-01T05:04:31.138Z,74.05
2023-05-01T05:06:57.718Z,74.20
2023-05-01T05:09:24.269Z,73.45
2023-05-01T05:11:50.875Z,73.06
2023-05-01T05:14:17.464Z,73.23
2023-05-01T05:16:44.095Z,72.55
2023-05-01T05:19:10.779Z,72.76
2023-05-01T05:21:37.294Z,72.50
2023-05-01T05:24:05.135Z,72.52
2023-05-01T05:26:31.672Z,72.76
2023-05-01T05:28:58.250Z,72.62
2023-05-01T05:31:24.809Z,72.46
2023-05-01T05:33:51.420Z,72.43
2023-05-01T05:36:18.002Z,72.28
2023-05-01T05:38:44.518Z,71.43
2023-05-01T05:41:11.093Z,71.37
2023-05-01T05:43:37.653Z,72.14
2023-05-01T05:46:04.433Z,71.73
2023-05-01T05:48:31.054Z,71.02
2023-05-01T05:50:57.623Z,71.61
2023-05-01T05:53:25.915Z,71.24
2023-05-01T05:55:52.925Z,71.22
2023-05-01T05:58:19.443Z,71.29
2023-05-01T06:00:49.592Z,71.14
2023-05-01T06:03:16.389Z,71.15
2023-05-01T06:05:46.064Z,70.77
2023-05-01T06:08:12.684Z,70.97
2023-05-01T06:10:39.535Z,70.05
2023-05-01T06:13:13.347Z,70.44
2023-05-01T06:15:41.475Z,69.50
2023-05-01T06:18:08.348Z,69.75
2023-05-01T06:20:34.976Z,68.83
2023-05-01T06:23:01.531Z,68.23
2023-05-01T06:25:28.079Z,68.30
2023-05-01T06:27:54.584Z,67.98
2023-05-01T06:30:21.182Z,67.35
2023-05-01T06:32:47.897Z,67.23
2023-05-01T06:35:14.550Z,66.91
2023-05-01T06:37:41.188Z,67.57
2023-05-01T06:40:08.466Z,66.81
2023-05-01T06:42:35.425Z,66.91
2023-05-01T06:45:01.963Z,67.56
2023-05-01T06:47:28.579Z,66.77
2023-05-01T06:49:55.275Z,66.15
2023-05-01T06:52:22.024Z,65.48
2023-05-01T06:54:48.580Z,66.44
2023-05-01T06:57:15.110Z,65.18
2023-05-01T06:59:41.671Z,64.73
2023-05-01T07:02:08.374Z,65.31
2023-05-01T07:04:34.909Z,64.46
2023-05-01T07:07:01.478Z,64.03
2023-05-01T07:09:28.042Z,63.69
2023-05-01T07:11:54.576Z,63.00
2023-05-01T07:14:21.131Z,63.10
2023-05-01T07:16:47.740Z,62.97
2023-05-01T07:19:14.299Z,62.48
2023-05-01T07:21:42.145Z,62.25
2023-05-01T07:26:59.202Z,61.32
2023-05-01T07:29:25.708Z,61.20
2023-05-01T07:31:52.330Z,61.69
2023-05-01T07:34:18.871Z,61.19
2023-05-01T07:36:45.453Z,61.27
2023-05-01T07:39:12.045Z,60.74
2023-05-01T07:41:38.596Z,60.54
2023-05-01T07:44:05.143Z,61.03
2023-05-01T07:46:31.803Z,60.72
2023-05-01T07:48:58.392Z,59.90
2023-05-01T07:51:24.924Z,60.62
2023-05-01T07:53:51.482Z,59.48
2023-05-01T07:56:18.079Z,59.81
2023-05-01T07:58:44.634Z,59.49
2023-05-01T08:01:11.181Z,59.16
2023-05-01T08:03:37.953Z,58.68
2023-05-01T08:06:05.349Z,57.84
2023-05-01T08:08:31.980Z,57.86
2023-05-01T08:10:58.566Z,57.98
2023-05-01T08:13:25.095Z,57.79
2023-05-01T08:15:51.689Z,57.92
2023-05-01T08:18:18.232Z,57.63
2023-05-01T08:20:44.796Z,56.40
2023-05-01T08:23:11.360Z,56.77
2023-05-01T08:25:37.914Z,56.21
2023-05-01T08:28:04.652Z,56.09
2023-05-01T08:30:31.289Z,56.11
2023-05-01T08:32:57.862Z,55.99
2023-05-01T08:35:24.409Z,55.09
2023-05-01T08:37:50.964Z,55.50
2023-05-01T08:40:17.566Z,55.67
2023-05-01T08:42:44.116Z,55.41
2023-05-01T08:45:10.928Z,54.70
2023-05-01T08:47:37.686Z,54.20
2023-05-01T08:50:04.577Z,53.66
2023-05-01T08:52:31.264Z,54.16
2023-05-01T08:54:57.814Z,53.35
2023-05-01T08:57:24.396Z,53.29
2023-05-01T08:59:50.961Z,52.06
2023-05-01T09:02:17.505Z,51.36
2023-05-01T09:04:44.072Z,51.50
2023-05-01T09:07:10.714Z,51.06
2023-05-01T09:09:37.326Z,50.55
2023-05-01T09:12:16.309Z,49.80
2023-05-01T09:14:42.856Z,49.30
2023-05-01T09:17:09.504Z,48.57
2023-05-01T09:19:36.067Z,47.42
2023-05-01T09:22:02.655Z,47.12
2023-05-01T09:24:29.239Z,46.67
2023-05-01T09:26:55.879Z,46.39
2023-05-01T09:29:41.710Z,45.88
2023-05-01T09:32:14.942Z,46.25
2023-05-01T09:34:41.966Z,45.86
2023-05-01T09:37:08.553Z,45.99
2023-05-01T09:39:35.146Z,45.33
2023-05-01T09:42:01.719Z,44.71
2023-05-01T09:44:28.316Z,43.88
2023-05-01T09:46:54.870Z,44.38
2023-05-01T09:49:31.075Z,44.35
2023-05-01T09:52:11.007Z,44.06
2023-05-01T09:54:37.551Z,43.73
2023-05-01T09:57:04.203Z,43.49
2023-05-01T09:59:30.776Z,43.45
2023-05-01T10:01:57.392Z,43.48
2023-05-01T10:04:33.926Z,43.33
2023-05-01T10:07:10.933Z,42.84
2023-05-01T10:09:37.504Z,42.89
2023-05-01T10:12:04.223Z,42.95
2023-05-01T10:14:30.788Z,42.24
2023-05-01T10:16:57.378Z,42.67
2023-05-01T10:19:23.949Z,41.85
2023-05-01T10:21:50.511Z,42.11
2023-05-01T10:24:17.407Z,41.35
2023-05-01T10:26:44.113Z,41.48
2023-05-01T10:29:10.783Z,41.03
2023-05-01T10:31:38.695Z,40.54
2023-05-01T10:34:05.991Z,40.65
2023-05-01T10:36:36.614Z,39.88
2023-05-01T10:39:03.401Z,40.26
2023-05-01T10:41:57.895Z,40.23
2023-05-01T10:44:25.481Z,39.56
2023-05-01T10:46:52.249Z,39.68
2023-05-01T10:49:18.960Z,39.31
2023-05-01T10:51:58.063Z,39.80
2023-05-01T10:54:31.397Z,39.68
2023-05-01T10:57:01.672Z,39.38
2023-05-01T11:00:00.577Z,39.53
2023-05-01T11:02:27.080Z,38.89
2023-05-01T11:04:53.951Z,38.95
2023-05-01T11:07:21.798Z,38.31
2023-05-01T11:09:52.279Z,38.30
2023-05-01T11:12:46.571Z,37.74
2023-05-01T11:15:25.080Z,37.31
2023-05-01T11:17:51.687Z,37.03
2023-05-01T11:20:27.020Z,36.91
2023-05-01T11:22:54.626Z,36.98
2023-05-01T11:25:27.976Z,36.48
2023-05-01T11:27:55.820Z,34.72
2023-05-01T11:30:22.648Z,35.26
2023-05-01T11:32:49.982Z,35.63
2023-05-01T11:35:20.045Z,35.65
2023-05-01T11:37:47.038Z,35.84
2023-05-01T11:40:26.257Z,35.37
2023-05-01T11:43:01.180Z,35.97
2023-05-01T11:45:27.862Z,34.48
2023-05-01T11:47:54.536Z,32.91
2023-05-01T11:50:21.208Z,32.83
2023-05-01T11:52:51.047Z,32.92
2023-05-01T11:55:17.589Z,32.84
2023-05-01T11:57:50.706Z,33.28
2023-05-01T12:00:31.450Z,33.15
2023-05-01T12:03:04.728Z,32.65
2023-05-01T12:05:31.912Z,32.27
2023-05-01T12:08:17.407Z,32.62
2023-05-01T12:10:43.997Z,32.15
2023-05-01T12:13:12.312Z,31.56
2023-05-01T12:15:41.456Z,31.36
2023-05-01T12:18:08.096Z,31.04
2023-05-01T12:20:39.277Z,31.45
2023-05-01T12:23:07.346Z,32.07
2023-05-01T12:25:34.069Z,31.01
2023-05-01T12:28:07.740Z,31.47
2023-05-01T12:30:34.317Z,31.54
2023-05-01T12:33:01.012Z,30.90
2023-05-01T12:35:30.837Z,30.45
2023-05-01T12:37:57.651Z,29.68
2023-05-01T12:40:24.298Z,29.87
2023-05-01T12:42:56.850Z,30.07
2023-05-01T12:45:24.322Z,30.34
2023-05-01T12:47:50.969Z,29.87
2023-05-01T12:50:17.681Z,30.34
2023-05-01T12:52:44.210Z,30.45
2023-05-01T12:55:10.864Z,29.62
2023-05-01T12:57:51.444Z,29.28
2023-05-01T13:00:18.153Z,29.22
2023-05-01T13:02:44.738Z,29.07
2023-05-01T13:05:11.770Z,29.71
2023-05-01T13:07:38.486Z,30.31
2023-05-01T13:10:05.311Z,29.78
2023-05-01T13:12:32.046Z,30.22
2023-05-01T13:14:58.675Z,28.64
2023-05-01T13:17:32.015Z,27.73
2023-05-01T13:19:59.914Z,28.32
2023-05-01T13:22:32.627Z,28.32
2023-05-01T13:24:59.245Z,27.31
2023-05-01T13:27:25.791Z,27.23
2023-05-01T13:29:56.461Z,27.88
2023-05-01T13:32:23.932Z,27.64
2023-05-01T13:34:50.566Z,28.15
2023-05-01T13:37:17.176Z,29.02
2023-05-01T13:39:44.269Z,28.75
2023-05-01T13:42:21.717Z,27.90
2023-05-01T13:44:51.214Z,27.58
2023-05-01T13:47:18.428Z,28.29
2023-05-01T13:49:45.070Z,28.51
2023-05-01T13:52:12.382Z,28.18
2023-05-01T13:54:40.205Z,26.42
2023-05-01T13:57:06.806Z,25.18
2023-05-01T13:59:41.084Z,24.05
2023-05-01T14:02:17.973Z,22.56
2023-05-01T14:04:44.614Z,21.95
2023-05-01T14:07:11.933Z,21.64
2023-05-01T14:09:38.514Z,21.70
2023-05-01T14:12:05.072Z,20.61
2023-05-01T14:14:31.658Z,19.67
2023-05-01T14:16:58.195Z,19.00
2023-05-01T14:19:24.850Z,18.20
2023-05-01T14:21:51.401Z,18.95
2023-05-01T14:24:18.193Z,18.87
2023-05-01T14:26:44.914Z,19.45
2023-05-01T14:29:22.765Z,18.64
2023-05-01T14:31:49.454Z,18.30
2023-05-01T14:34:16.847Z,17.43
2023-05-01T14:36:43.477Z,17.71
2023-05-01T14:39:10.052Z,18.49
2023-05-01T14:41:36.597Z,18.61
2023-05-01T14:44:03.147Z,20.59
2023-05-01T14:46:31.303Z,23.82
2023-05-01T14:48:58.498Z,26.75
2023-05-01T14:51:25.129Z,28.56
2023-05-01T14:53:51.709Z,30.38
2023-05-01T14:56:18.240Z,31.46
2023-05-01T14:58:44.837Z,32.56
2023-05-01T15:01:11.401Z,34.72
2023-05-01T15:03:38.093Z,34.58
2023-05-01T15:06:04.940Z,35.66
2023-05-01T15:08:31.531Z,36.04
2023-05-01T15:10:58.114Z,36.58
2023-05-01T15:13:24.681Z,36.91
2023-05-01T15:15:51.295Z,37.26
2023-05-01T15:18:17.898Z,37.41
2023-05-01T15:20:45.374Z,37.67
2023-05-01T15:23:11.955Z,37.77
2023-05-01T15:25:38.459Z,38.06
2023-05-01T15:28:05.077Z,38.64
2023-05-01T15:30:31.741Z,39.05
2023-05-01T15:32:58.420Z,38.05
2023-05-01T15:35:25.080Z,37.99
2023-05-01T15:37:51.701Z,37.02
2023-05-01T15:40:18.335Z,37.37
2023-05-01T15:42:44.947Z,37.88
2023-05-01T15:45:11.639Z,38.75
2023-05-01T15:47:38.443Z,39.03
2023-05-01T15:50:08.959Z,39.70
2023-05-01T15:52:35.563Z,40.69
2023-05-01T15:55:02.101Z,40.79
2023-05-01T15:57:29.677Z,41.36
2023-05-01T15:59:56.396Z,41.82
2023-05-01T16:02:23.234Z,41.89
2023-05-01T16:04:49.826Z,42.07
2023-05-01T16:07:16.412Z,42.46
2023-05-01T16:09:42.999Z,42.97
2023-05-01T16:12:09.565Z,43.36
2023-05-01T16:14:36.119Z,42.80
2023-05-01T16:17:03.511Z,41.64
2023-05-01T16:19:30.064Z,41.12
2023-05-01T16:21:56.648Z,40.17
2023-05-01T16:24:23.200Z,39.91
2023-05-01T16:26:49.853Z,41.88
2023-05-01T16:29:16.433Z,42.77
2023-05-01T16:31:43.852Z,44.09
2023-05-01T16:34:14.133Z,44.99
2023-05-01T16:36:41.198Z,46.28
2023-05-01T16:39:10.206Z,45.86
2023-05-01T16:41:46.921Z,46.50
2023-05-01T16:44:13.805Z,47.56
2023-05-01T16:46:44.108Z,48.05
2023-05-01T16:49:11.238Z,49.32
2023-05-01T16:51:38.607Z,48.24
2023-05-01T16:54:05.210Z,48.64
2023-05-01T16:56:31.752Z,49.39
2023-05-01T16:58:58.317Z,49.26
2023-05-01T17:01:24.943Z,49.27
2023-05-01T17:03:52.459Z,49.16
2023-05-01T17:06:19.039Z,48.93
2023-05-01T17:08:45.692Z,49.11
2023-05-01T17:11:12.244Z,48.89
2023-05-01T17:13:38.762Z,48.29
2023-05-01T17:16:05.450Z,48.46
2023-05-01T17:18:32.075Z,49.32
2023-05-01T17:20:58.629Z,49.10
2023-05-01T17:23:25.201Z,49.71
2023-05-01T17:25:51.774Z,49.26
2023-05-01T17:28:18.324Z,48.57
2023-05-01T17:30:44.932Z,48.81
2023-05-01T17:33:11.497Z,49.30
2023-05-01T17:35:38.028Z,50.02
2023-05-01T17:38:04.568Z,49.58
2023-05-01T17:40:31.150Z,49.86
2023-05-01T17:42:58.022Z,49.78
2023-05-01T17:45:24.710Z,49.95
2023-05-01T17:47:51.508Z,50.37
2023-05-01T17:50:18.276Z,50.38
2023-05-01T17:52:44.815Z,50.37
2023-05-01T17:55:17.098Z,51.38
2023-05-01T17:57:46.500Z,51.51
2023-05-01T18:00:13.603Z,50.69
2023-05-01T18:02:40.596Z,50.89
2023-05-01T18:05:07.392Z,50.61
2023-05-01T18:07:34.008Z,51.15
2023-05-01T18:10:01.067Z,51.63
2023-05-01T18:12:27.859Z,51.73
2023-05-01T18:14:54.401Z,52.03
2023-05-01T18:17:21.611Z,51.93
2023-05-01T18:19:49.536Z,51.36
2023-05-01T18:22:16.165Z,51.67
2023-05-01T18:24:42.934Z,50.50
2023-05-01T18:27:09.597Z,48.64
2023-05-01T18:29:36.147Z,48.23
2023-05-01T18:32:02.745Z,49.03
2023-05-01T18:34:29.528Z,48.02
2023-05-01T18:36:56.129Z,48.36
2023-05-01T18:39:22.711Z,49.18
2023-05-01T18:41:54.487Z,49.98
2023-05-01T18:44:21.049Z,48.78
2023-05-01T18:46:47.699Z,49.40
2023-05-01T18:49:14.487Z,50.07
2023-05-01T18:51:41.122Z,49.64
2023-05-01T18:54:07.695Z,50.21
2023-05-01T18:56:34.484Z,50.94
2023-05-01T18:59:01.142Z,50.94
2023-05-01T19:01:28.022Z,51.09
2023-05-01T19:03:54.595Z,51.71
2023-05-01T19:06:21.224Z,51.84
2023-05-01T19:08:47.879Z,52.03
2023-05-01T19:11:14.458Z,53.33
2023-05-01T19:13:40.971Z,53.10
2023-05-01T19:16:07.590Z,53.71
2023-05-01T19:18:34.160Z,53.99
2023-05-01T19:21:00.688Z,54.86
2023-05-01T19:23:27.206Z,55.31
2023-05-01T19:25:53.731Z,55.87
2023-05-01T19:28:20.322Z,55.80
2023-05-01T19:30:46.854Z,55.83
2023-05-01T19:33:13.497Z,56.58
2023-05-01T19:35:40.072Z,56.85
2023-05-01T19:38:06.621Z,57.59
2023-05-01T19:40:33.199Z,57.85
2023-05-01T19:42:59.722Z,58.12
2023-05-01T19:45:26.328Z,58.80
2023-05-01T19:47:52.875Z,58.92
2023-05-01T19:50:19.440Z,59.17
2023-05-01T19:52:46.020Z,59.40
2023-05-01T19:55:12.568Z,59.94
2023-05-01T19:57:39.322Z,60.14
2023-05-01T20:00:06.837Z,60.64
